sensor_id;sensor_type;location;lat;lon;timestamp;P1;durP1;ratioP1;P2;durP2;ratioP2
32038;SDS011;18549;42.286;22.688;2023-06-22T00:00:11;14.18;;;10.10;;
32038;SDS011;18549;42.286;22.688;2023-06-22T00:02:39;11.82;;;10.68;;
32038;SDS011;18549;42.286;22.688;2023-06-22T00:05:06;12.40;;;11.00;;
32038;SDS011;18549;42.286;22.688;2023-06-22T00:07:33;12.85;;;11.48;;
32038;SDS011;18549;42.286;22.688;2023-06-22T00:10:02;16.02;;;12.27;;
32038;SDS011;18549;42.286;22.688;2023-06-22T00:12:32;13.25;;;11.77;;
32038;SDS011;18549;42.286;22.688;2023-06-22T00:15:01;12.63;;;11.32;;
32038;SDS011;18549;42.286;22.688;2023-06-22T00:17:29;12.93;;;11.57;;
32038;SDS011;18549;42.286;22.688;2023-06-22T00:19:56;12.90;;;11.20;;
32038;SDS011;18549;42.286;22.688;2023-06-22T00:22:23;13.25;;;11.30;;
32038;SDS011;18549;42.286;22.688;2023-06-22T00:24:53;12.52;;;11.38;;
32038;SDS011;18549;42.286;22.688;2023-06-22T00:27:21;12.85;;;11.48;;
32038;SDS011;18549;42.286;22.688;2023-06-22T00:29:48;12.70;;;10.35;;
32038;SDS011;18549;42.286;22.688;2023-06-22T00:32:18;13.30;;;10.90;;
32038;SDS011;18549;42.286;22.688;2023-06-22T00:34:45;11.73;;;10.55;;
32038;SDS011;18549;42.286;22.688;2023-06-22T00:37:12;12.95;;;11.45;;
32038;SDS011;18549;42.286;22.688;2023-06-22T00:39:39;12.57;;;11.27;;
32038;SDS011;18549;42.286;22.688;2023-06-22T00:42:06;13.15;;;11.35;;
32038;SDS011;18549;42.286;22.688;2023-06-22T00:44:35;14.00;;;11.77;;
32038;SDS011;18549;42.286;22.688;2023-06-22T00:47:02;16.40;;;11.45;;
32038;SDS011;18549;42.286;22.688;2023-06-22T00:49:35;16.37;;;11.63;;
32038;SDS011;18549;42.286;22.688;2023-06-22T00:52:03;15.65;;;11.38;;
32038;SDS011;18549;42.286;22.688;2023-06-22T00:54:34;13.35;;;11.80;;
32038;SDS011;18549;42.286;22.688;2023-06-22T00:57:03;13.32;;;11.30;;
32038;SDS011;18549;42.286;22.688;2023-06-22T00:59:31;12.85;;;11.57;;
32038;SDS011;18549;42.286;22.688;2023-06-22T01:01:59;14.50;;;11.43;;
32038;SDS011;18549;42.286;22.688;2023-06-22T01:04:35;13.77;;;12.25;;
32038;SDS011;18549;42.286;22.688;2023-06-22T01:07:06;12.70;;;11.40;;
32038;SDS011;18549;42.286;22.688;2023-06-22T01:09:42;16.55;;;11.02;;
32038;SDS011;18549;42.286;22.688;2023-06-22T01:12:16;18.45;;;12.32;;
32038;SDS011;18549;42.286;22.688;2023-06-22T01:14:47;12.55;;;10.95;;
32038;SDS011;18549;42.286;22.688;2023-06-22T01:17:19;16.35;;;12.57;;
32038;SDS011;18549;42.286;22.688;2023-06-22T01:19:49;12.65;;;11.35;;
32038;SDS011;18549;42.286;22.688;2023-06-22T01:22:22;13.40;;;12.00;;
32038;SDS011;18549;42.286;22.688;2023-06-22T01:24:55;14.98;;;11.45;;
32038;SDS011;18549;42.286;22.688;2023-06-22T01:27:39;14.73;;;12.45;;
32038;SDS011;18549;42.286;22.688;2023-06-22T01:30:16;14.10;;;11.90;;
32038;SDS011;18549;42.286;22.688;2023-06-22T01:32:45;11.90;;;10.73;;
32038;SDS011;18549;42.286;22.688;2023-06-22T01:35:13;12.55;;;11.32;;
32038;SDS011;18549;42.286;22.688;2023-06-22T01:37:41;18.60;;;12.13;;
32038;SDS011;18549;42.286;22.688;2023-06-22T01:40:09;13.27;;;11.50;;
32038;SDS011;18549;42.286;22.688;2023-06-22T01:42:37;13.13;;;11.48;;
32038;SDS011;18549;42.286;22.688;2023-06-22T01:45:07;17.20;;;11.40;;
32038;SDS011;18549;42.286;22.688;2023-06-22T01:47:38;13.77;;;11.85;;
32038;SDS011;18549;42.286;22.688;2023-06-22T01:50:07;14.10;;;11.32;;
32038;SDS011;18549;42.286;22.688;2023-06-22T01:52:35;12.77;;;11.43;;
32038;SDS011;18549;42.286;22.688;2023-06-22T01:55:03;12.30;;;11.20;;
32038;SDS011;18549;42.286;22.688;2023-06-22T01:57:33;13.60;;;12.20;;
32038;SDS011;18549;42.286;22.688;2023-06-22T02:00:02;18.15;;;11.73;;
32038;SDS011;18549;42.286;22.688;2023-06-22T02:02:37;17.17;;;12.82;;
32038;SDS011;18549;42.286;22.688;2023-06-22T02:05:12;16.00;;;12.45;;
32038;SDS011;18549;42.286;22.688;2023-06-22T02:07:44;15.73;;;12.88;;
32038;SDS011;18549;42.286;22.688;2023-06-22T02:10:15;16.42;;;13.10;;
32038;SDS011;18549;42.286;22.688;2023-06-22T02:12:46;16.58;;;13.68;;
32038;SDS011;18549;42.286;22.688;2023-06-22T02:15:17;17.35;;;13.32;;
32038;SDS011;18549;42.286;22.688;2023-06-22T02:17:49;15.27;;;12.82;;
32038;SDS011;18549;42.286;22.688;2023-06-22T02:20:17;14.20;;;12.90;;
32038;SDS011;18549;42.286;22.688;2023-06-22T02:22:48;18.02;;;13.30;;
32038;SDS011;18549;42.286;22.688;2023-06-22T02:25:15;18.77;;;13.60;;
32038;SDS011;18549;42.286;22.688;2023-06-22T02:27:44;13.70;;;11.93;;
32038;SDS011;18549;42.286;22.688;2023-06-22T02:30:12;16.62;;;14.27;;
32038;SDS011;18549;42.286;22.688;2023-06-22T02:32:42;18.12;;;13.85;;
32038;SDS011;18549;42.286;22.688;2023-06-22T02:35:13;15.40;;;13.82;;
32038;SDS011;18549;42.286;22.688;2023-06-22T02:37:40;14.75;;;13.13;;
32038;SDS011;18549;42.286;22.688;2023-06-22T02:40:08;14.65;;;13.10;;
32038;SDS011;18549;42.286;22.688;2023-06-22T02:42:39;14.95;;;13.45;;
32038;SDS011;18549;42.286;22.688;2023-06-22T02:45:07;13.98;;;12.57;;
32038;SDS011;18549;42.286;22.688;2023-06-22T02:47:34;14.87;;;13.38;;
32038;SDS011;18549;42.286;22.688;2023-06-22T02:50:02;15.80;;;14.23;;
32038;SDS011;18549;42.286;22.688;2023-06-22T02:52:31;16.40;;;13.43;;
32038;SDS011;18549;42.286;22.688;2023-06-22T02:55:00;18.27;;;12.98;;
32038;SDS011;18549;42.286;22.688;2023-06-22T02:57:27;16.23;;;13.32;;
32038;SDS011;18549;42.286;22.688;2023-06-22T02:59:54;16.05;;;13.40;;
32038;SDS011;18549;42.286;22.688;2023-06-22T03:02:21;20.25;;;13.65;;
32038;SDS011;18549;42.286;22.688;2023-06-22T03:04:49;14.70;;;12.55;;
32038;SDS011;18549;42.286;22.688;2023-06-22T03:07:18;14.75;;;13.23;;
32038;SDS011;18549;42.286;22.688;2023-06-22T03:09:47;17.42;;;12.48;;
32038;SDS011;18549;42.286;22.688;2023-06-22T03:12:14;14.43;;;13.02;;
32038;SDS011;18549;42.286;22.688;2023-06-22T03:14:43;14.85;;;12.88;;
32038;SDS011;18549;42.286;22.688;2023-06-22T03:17:10;15.07;;;13.57;;
32038;SDS011;18549;42.286;22.688;2023-06-22T03:19:37;23.50;;;13.25;;
32038;SDS011;18549;42.286;22.688;2023-06-22T03:22:06;16.30;;;13.15;;
32038;SDS011;18549;42.286;22.688;2023-06-22T03:24:33;14.48;;;12.80;;
32038;SDS011;18549;42.286;22.688;2023-06-22T03:27:04;17.12;;;13.62;;
32038;SDS011;18549;42.286;22.688;2023-06-22T03:29:32;16.30;;;13.80;;
32038;SDS011;18549;42.286;22.688;2023-06-22T03:32:00;20.23;;;13.88;;
32038;SDS011;18549;42.286;22.688;2023-06-22T03:34:30;19.02;;;13.15;;
32038;SDS011;18549;42.286;22.688;2023-06-22T03:36:59;24.55;;;13.38;;
32038;SDS011;18549;42.286;22.688;2023-06-22T03:39:27;16.83;;;13.57;;
32038;SDS011;18549;42.286;22.688;2023-06-22T03:41:54;18.08;;;12.88;;
32038;SDS011;18549;42.286;22.688;2023-06-22T03:44:24;17.37;;;12.75;;
32038;SDS011;18549;42.286;22.688;2023-06-22T03:46:52;23.23;;;14.87;;
32038;SDS011;18549;42.286;22.688;2023-06-22T03:49:19;16.90;;;13.00;;
32038;SDS011;18549;42.286;22.688;2023-06-22T03:51:46;17.33;;;14.60;;
32038;SDS011;18549;42.286;22.688;2023-06-22T03:54:16;14.85;;;13.00;;
32038;SDS011;18549;42.286;22.688;2023-06-22T03:56:44;15.63;;;13.23;;
32038;SDS011;18549;42.286;22.688;2023-06-22T03:59:13;23.83;;;14.15;;
32038;SDS011;18549;42.286;22.688;2023-06-22T04:01:43;19.40;;;13.93;;
32038;SDS011;18549;42.286;22.688;2023-06-22T04:04:11;14.98;;;12.77;;
32038;SDS011;18549;42.286;22.688;2023-06-22T04:06:39;14.20;;;12.77;;
32038;SDS011;18549;42.286;22.688;2023-06-22T04:09:07;16.65;;;13.13;;
32038;SDS011;18549;42.286;22.688;2023-06-22T04:11:34;16.62;;;13.73;;
32038;SDS011;18549;42.286;22.688;2023-06-22T04:14:01;16.37;;;12.98;;
32038;SDS011;18549;42.286;22.688;2023-06-22T04:16:28;16.08;;;13.50;;
32038;SDS011;18549;42.286;22.688;2023-06-22T04:18:57;14.98;;;12.93;;
32038;SDS011;18549;42.286;22.688;2023-06-22T04:21:24;18.45;;;14.82;;
32038;SDS011;18549;42.286;22.688;2023-06-22T04:23:51;21.48;;;14.70;;
32038;SDS011;18549;42.286;22.688;2023-06-22T04:26:21;18.65;;;13.93;;
32038;SDS011;18549;42.286;22.688;2023-06-22T04:28:51;18.12;;;15.38;;
32038;SDS011;18549;42.286;22.688;2023-06-22T04:31:23;19.83;;;13.62;;
32038;SDS011;18549;42.286;22.688;2023-06-22T04:34:02;17.85;;;13.80;;
32038;SDS011;18549;42.286;22.688;2023-06-22T04:36:33;26.17;;;13.98;;
32038;SDS011;18549;42.286;22.688;2023-06-22T04:39:04;16.55;;;12.77;;
32038;SDS011;18549;42.286;22.688;2023-06-22T04:41:34;24.50;;;14.50;;
32038;SDS011;18549;42.286;22.688;2023-06-22T04:44:09;27.45;;;14.68;;
32038;SDS011;18549;42.286;22.688;2023-06-22T04:46:37;17.80;;;14.82;;
32038;SDS011;18549;42.286;22.688;2023-06-22T04:49:09;14.13;;;12.63;;
32038;SDS011;18549;42.286;22.688;2023-06-22T04:51:37;18.42;;;15.10;;
32038;SDS011;18549;42.286;22.688;2023-06-22T04:54:07;26.33;;;14.57;;
32038;SDS011;18549;42.286;22.688;2023-06-22T04:56:35;16.17;;;14.10;;
32038;SDS011;18549;42.286;22.688;2023-06-22T04:59:12;18.67;;;15.27;;
32038;SDS011;18549;42.286;22.688;2023-06-22T05:01:44;29.15;;;14.75;;
32038;SDS011;18549;42.286;22.688;2023-06-22T05:04:13;18.27;;;13.45;;
32038;SDS011;18549;42.286;22.688;2023-06-22T05:06:41;22.90;;;14.27;;
32038;SDS011;18549;42.286;22.688;2023-06-22T05:09:08;24.35;;;15.00;;
32038;SDS011;18549;42.286;22.688;2023-06-22T05:11:41;27.73;;;15.57;;
32038;SDS011;18549;42.286;22.688;2023-06-22T05:14:09;18.87;;;13.88;;
32038;SDS011;18549;42.286;22.688;2023-06-22T05:16:36;21.03;;;13.57;;
32038;SDS011;18549;42.286;22.688;2023-06-22T05:19:04;19.25;;;14.25;;
32038;SDS011;18549;42.286;22.688;2023-06-22T05:21:33;20.27;;;13.93;;
32038;SDS011;18549;42.286;22.688;2023-06-22T05:24:02;17.27;;;14.35;;
32038;SDS011;18549;42.286;22.688;2023-06-22T05:26:32;18.92;;;14.02;;
32038;SDS011;18549;42.286;22.688;2023-06-22T05:29:10;17.45;;;14.40;;
32038;SDS011;18549;42.286;22.688;2023-06-22T05:31:40;18.12;;;14.52;;
32038;SDS011;18549;42.286;22.688;2023-06-22T05:34:17;22.52;;;13.65;;
32038;SDS011;18549;42.286;22.688;2023-06-22T05:36:46;15.48;;;13.93;;
32038;SDS011;18549;42.286;22.688;2023-06-22T05:39:15;16.05;;;13.62;;
32038;SDS011;18549;42.286;22.688;2023-06-22T05:41:44;15.93;;;13.73;;
32038;SDS011;18549;42.286;22.688;2023-06-22T05:44:14;21.02;;;13.82;;
32038;SDS011;18549;42.286;22.688;2023-06-22T05:46:42;15.30;;;13.88;;
32038;SDS011;18549;42.286;22.688;2023-06-22T05:49:15;17.92;;;14.20;;
32038;SDS011;18549;42.286;22.688;2023-06-22T05:51:42;21.95;;;14.73;;
32038;SDS011;18549;42.286;22.688;2023-06-22T05:54:30;19.52;;;14.68;;
32038;SDS011;18549;42.286;22.688;2023-06-22T05:56:58;18.73;;;13.23;;
32038;SDS011;18549;42.286;22.688;2023-06-22T05:59:42;19.87;;;14.73;;
32038;SDS011;18549;42.286;22.688;2023-06-22T06:02:23;16.73;;;13.75;;
32038;SDS011;18549;42.286;22.688;2023-06-22T06:05:08;14.87;;;13.38;;
32038;SDS011;18549;42.286;22.688;2023-06-22T06:07:38;29.65;;;15.30;;
32038;SDS011;18549;42.286;22.688;2023-06-22T06:10:06;18.95;;;15.23;;
32038;SDS011;18549;42.286;22.688;2023-06-22T06:12:40;16.92;;;14.65;;
32038;SDS011;18549;42.286;22.688;2023-06-22T06:15:12;17.15;;;15.45;;
32038;SDS011;18549;42.286;22.688;2023-06-22T06:17:46;19.47;;;14.57;;
32038;SDS011;18549;42.286;22.688;2023-06-22T06:20:28;23.55;;;14.77;;
32038;SDS011;18549;42.286;22.688;2023-06-22T06:22:57;17.95;;;14.65;;
32038;SDS011;18549;42.286;22.688;2023-06-22T06:25:25;15.38;;;13.88;;
32038;SDS011;18549;42.286;22.688;2023-06-22T06:28:00;18.20;;;13.00;;
32038;SDS011;18549;42.286;22.688;2023-06-22T06:30:30;18.58;;;14.52;;
32038;SDS011;18549;42.286;22.688;2023-06-22T06:33:04;17.48;;;14.10;;
32038;SDS011;18549;42.286;22.688;2023-06-22T06:35:34;16.45;;;14.68;;
32038;SDS011;18549;42.286;22.688;2023-06-22T06:38:07;19.15;;;14.95;;
32038;SDS011;18549;42.286;22.688;2023-06-22T06:40:35;16.37;;;14.65;;
32038;SDS011;18549;42.286;22.688;2023-06-22T06:43:07;18.15;;;15.20;;
32038;SDS011;18549;42.286;22.688;2023-06-22T06:45:43;15.45;;;13.38;;
32038;SDS011;18549;42.286;22.688;2023-06-22T06:48:12;17.40;;;13.40;;
32038;SDS011;18549;42.286;22.688;2023-06-22T06:50:42;17.75;;;14.85;;
32038;SDS011;18549;42.286;22.688;2023-06-22T06:53:17;17.92;;;14.77;;
32038;SDS011;18549;42.286;22.688;2023-06-22T06:55:45;20.55;;;15.20;;
32038;SDS011;18549;42.286;22.688;2023-06-22T06:58:20;16.67;;;14.85;;
32038;SDS011;18549;42.286;22.688;2023-06-22T07:00:49;18.48;;;15.18;;
32038;SDS011;18549;42.286;22.688;2023-06-22T07:03:20;25.92;;;15.43;;
32038;SDS011;18549;42.286;22.688;2023-06-22T07:05:47;18.87;;;15.87;;
32038;SDS011;18549;42.286;22.688;2023-06-22T07:08:25;18.37;;;14.55;;
32038;SDS011;18549;42.286;22.688;2023-06-22T07:10:57;21.80;;;14.48;;
32038;SDS011;18549;42.286;22.688;2023-06-22T07:13:29;19.73;;;14.98;;
32038;SDS011;18549;42.286;22.688;2023-06-22T07:16:11;16.37;;;14.65;;
32038;SDS011;18549;42.286;22.688;2023-06-22T07:18:41;19.17;;;15.10;;
32038;SDS011;18549;42.286;22.688;2023-06-22T07:21:23;15.55;;;13.90;;
32038;SDS011;18549;42.286;22.688;2023-06-22T07:23:52;15.73;;;14.13;;
32038;SDS011;18549;42.286;22.688;2023-06-22T07:26:24;17.30;;;14.48;;
32038;SDS011;18549;42.286;22.688;2023-06-22T07:28:59;21.20;;;14.13;;
32038;SDS011;18549;42.286;22.688;2023-06-22T07:31:33;15.43;;;13.45;;
32038;SDS011;18549;42.286;22.688;2023-06-22T07:34:13;16.20;;;14.38;;
32038;SDS011;18549;42.286;22.688;2023-06-22T07:36:42;15.85;;;14.05;;
32038;SDS011;18549;42.286;22.688;2023-06-22T07:39:17;15.93;;;14.30;;
32038;SDS011;18549;42.286;22.688;2023-06-22T07:42:00;18.75;;;13.75;;
32038;SDS011;18549;42.286;22.688;2023-06-22T07:44:31;17.95;;;14.10;;
32038;SDS011;18549;42.286;22.688;2023-06-22T07:47:03;14.80;;;13.30;;
32038;SDS011;18549;42.286;22.688;2023-06-22T07:49:31;14.80;;;13.30;;
32038;SDS011;18549;42.286;22.688;2023-06-22T07:52:08;15.35;;;13.75;;
32038;SDS011;18549;42.286;22.688;2023-06-22T07:54:37;15.65;;;13.50;;
32038;SDS011;18549;42.286;22.688;2023-06-22T07:57:08;20.02;;;14.80;;
32038;SDS011;18549;42.286;22.688;2023-06-22T07:59:36;14.43;;;12.93;;
32038;SDS011;18549;42.286;22.688;2023-06-22T08:02:06;14.30;;;12.80;;
32038;SDS011;18549;42.286;22.688;2023-06-22T08:04:34;15.50;;;12.10;;
32038;SDS011;18549;42.286;22.688;2023-06-22T08:07:02;18.23;;;11.32;;
32038;SDS011;18549;42.286;22.688;2023-06-22T08:09:34;13.30;;;11.50;;
32038;SDS011;18549;42.286;22.688;2023-06-22T08:12:05;17.75;;;11.82;;
32038;SDS011;18549;42.286;22.688;2023-06-22T08:14:35;15.23;;;11.23;;
32038;SDS011;18549;42.286;22.688;2023-06-22T08:17:05;11.65;;;10.43;;
32038;SDS011;18549;42.286;22.688;2023-06-22T08:19:32;16.62;;;10.73;;
32038;SDS011;18549;42.286;22.688;2023-06-22T08:22:15;13.30;;;10.70;;
32038;SDS011;18549;42.286;22.688;2023-06-22T08:24:51;11.85;;;10.25;;
32038;SDS011;18549;42.286;22.688;2023-06-22T08:27:27;19.23;;;10.52;;
32038;SDS011;18549;42.286;22.688;2023-06-22T08:29:57;10.23;;;8.52;;
32038;SDS011;18549;42.286;22.688;2023-06-22T08:32:25;12.55;;;9.35;;
32038;SDS011;18549;42.286;22.688;2023-06-22T08:34:58;11.57;;;9.68;;
32038;SDS011;18549;42.286;22.688;2023-06-22T08:37:29;10.13;;;9.13;;
32038;SDS011;18549;42.286;22.688;2023-06-22T08:40:03;13.32;;;9.10;;
32038;SDS011;18549;42.286;22.688;2023-06-22T08:42:46;9.68;;;8.75;;
32038;SDS011;18549;42.286;22.688;2023-06-22T08:45:14;14.15;;;9.90;;
32038;SDS011;18549;42.286;22.688;2023-06-22T08:47:43;10.93;;;9.18;;
32038;SDS011;18549;42.286;22.688;2023-06-22T08:50:13;13.02;;;8.73;;
32038;SDS011;18549;42.286;22.688;2023-06-22T08:52:45;16.80;;;11.10;;
32038;SDS011;18549;42.286;22.688;2023-06-22T08:55:17;10.65;;;8.60;;
32038;SDS011;18549;42.286;22.688;2023-06-22T08:57:47;10.02;;;8.07;;
32038;SDS011;18549;42.286;22.688;2023-06-22T09:00:26;10.85;;;9.60;;
32038;SDS011;18549;42.286;22.688;2023-06-22T09:03:00;17.45;;;10.35;;
32038;SDS011;18549;42.286;22.688;2023-06-22T09:05:29;11.95;;;8.80;;
32038;SDS011;18549;42.286;22.688;2023-06-22T09:07:56;11.93;;;9.60;;
32038;SDS011;18549;42.286;22.688;2023-06-22T09:10:27;13.30;;;9.32;;
32038;SDS011;18549;42.286;22.688;2023-06-22T09:12:59;18.33;;;9.07;;
32038;SDS011;18549;42.286;22.688;2023-06-22T09:15:31;10.68;;;9.25;;
32038;SDS011;18549;42.286;22.688;2023-06-22T09:18:00;14.60;;;9.15;;
32038;SDS011;18549;42.286;22.688;2023-06-22T09:20:29;11.23;;;8.77;;
32038;SDS011;18549;42.286;22.688;2023-06-22T09:22:56;17.17;;;9.60;;
32038;SDS011;18549;42.286;22.688;2023-06-22T09:25:25;12.40;;;9.32;;
32038;SDS011;18549;42.286;22.688;2023-06-22T09:27:53;16.52;;;8.30;;
32038;SDS011;18549;42.286;22.688;2023-06-22T09:30:22;9.05;;;8.15;;
32038;SDS011;18549;42.286;22.688;2023-06-22T09:32:49;10.93;;;8.48;;
32038;SDS011;18549;42.286;22.688;2023-06-22T09:35:31;13.95;;;7.97;;
32038;SDS011;18549;42.286;22.688;2023-06-22T09:38:03;9.90;;;8.90;;
32038;SDS011;18549;42.286;22.688;2023-06-22T09:40:32;13.60;;;8.35;;
32038;SDS011;18549;42.286;22.688;2023-06-22T09:43:07;8.57;;;7.72;;
32038;SDS011;18549;42.286;22.688;2023-06-22T09:45:37;12.93;;;8.32;;
32038;SDS011;18549;42.286;22.688;2023-06-22T09:48:06;8.88;;;7.25;;
32038;SDS011;18549;42.286;22.688;2023-06-22T09:50:37;9.70;;;8.33;;
32038;SDS011;18549;42.286;22.688;2023-06-22T09:53:17;12.63;;;8.27;;
32038;SDS011;18549;42.286;22.688;2023-06-22T09:55:46;8.68;;;7.78;;
32038;SDS011;18549;42.286;22.688;2023-06-22T09:58:17;8.52;;;7.55;;
32038;SDS011;18549;42.286;22.688;2023-06-22T10:00:49;11.20;;;8.38;;
32038;SDS011;18549;42.286;22.688;2023-06-22T10:03:24;8.48;;;7.22;;
32038;SDS011;18549;42.286;22.688;2023-06-22T10:05:54;9.30;;;8.00;;
32038;SDS011;18549;42.286;22.688;2023-06-22T10:08:25;8.27;;;7.47;;
32038;SDS011;18549;42.286;22.688;2023-06-22T10:11:07;12.13;;;8.00;;
32038;SDS011;18549;42.286;22.688;2023-06-22T10:13:35;10.25;;;8.48;;
32038;SDS011;18549;42.286;22.688;2023-06-22T10:16:07;11.80;;;8.02;;
32038;SDS011;18549;42.286;22.688;2023-06-22T10:18:44;7.70;;;7.00;;
32038;SDS011;18549;42.286;22.688;2023-06-22T10:21:11;9.77;;;7.00;;
32038;SDS011;18549;42.286;22.688;2023-06-22T10:23:46;11.73;;;7.82;;
32038;SDS011;18549;42.286;22.688;2023-06-22T10:26:13;8.52;;;7.72;;
32038;SDS011;18549;42.286;22.688;2023-06-22T10:28:40;9.97;;;8.17;;
32038;SDS011;18549;42.286;22.688;2023-06-22T10:31:10;9.93;;;7.32;;
32038;SDS011;18549;42.286;22.688;2023-06-22T10:33:38;8.60;;;7.47;;
32038;SDS011;18549;42.286;22.688;2023-06-22T10:36:09;10.52;;;8.45;;
32038;SDS011;18549;42.286;22.688;2023-06-22T10:38:36;11.45;;;9.07;;
32038;SDS011;18549;42.286;22.688;2023-06-22T10:41:08;10.13;;;8.43;;
32038;SDS011;18549;42.286;22.688;2023-06-22T10:43:36;8.60;;;7.50;;
32038;SDS011;18549;42.286;22.688;2023-06-22T10:46:10;8.25;;;7.00;;
32038;SDS011;18549;42.286;22.688;2023-06-22T10:48:40;8.98;;;7.72;;
32038;SDS011;18549;42.286;22.688;2023-06-22T10:51:13;8.85;;;7.95;;
32038;SDS011;18549;42.286;22.688;2023-06-22T10:53:42;8.82;;;7.95;;
32038;SDS011;18549;42.286;22.688;2023-06-22T10:56:08;10.68;;;8.10;;
32038;SDS011;18549;42.286;22.688;2023-06-22T10:58:36;10.63;;;8.93;;
32038;SDS011;18549;42.286;22.688;2023-06-22T11:01:07;9.32;;;8.10;;
32038;SDS011;18549;42.286;22.688;2023-06-22T11:03:35;9.15;;;8.18;;
32038;SDS011;18549;42.286;22.688;2023-06-22T11:06:04;9.05;;;8.00;;
32038;SDS011;18549;42.286;22.688;2023-06-22T11:08:36;12.13;;;8.32;;
32038;SDS011;18549;42.286;22.688;2023-06-22T11:11:05;12.23;;;7.70;;
32038;SDS011;18549;42.286;22.688;2023-06-22T11:13:34;9.38;;;7.37;;
32038;SDS011;18549;42.286;22.688;2023-06-22T11:16:06;13.05;;;8.15;;
32038;SDS011;18549;42.286;22.688;2023-06-22T11:18:37;10.20;;;7.80;;
32038;SDS011;18549;42.286;22.688;2023-06-22T11:21:05;13.05;;;8.02;;
32038;SDS011;18549;42.286;22.688;2023-06-22T11:23:33;9.23;;;7.53;;
32038;SDS011;18549;42.286;22.688;2023-06-22T11:26:00;9.15;;;6.93;;
32038;SDS011;18549;42.286;22.688;2023-06-22T11:28:28;7.37;;;6.68;;
32038;SDS011;18549;42.286;22.688;2023-06-22T11:30:56;9.98;;;8.10;;
32038;SDS011;18549;42.286;22.688;2023-06-22T11:33:23;9.07;;;7.70;;
32038;SDS011;18549;42.286;22.688;2023-06-22T11:35:54;9.10;;;8.05;;
32038;SDS011;18549;42.286;22.688;2023-06-22T11:38:24;10.93;;;8.63;;
32038;SDS011;18549;42.286;22.688;2023-06-22T11:40:53;12.27;;;8.35;;
32038;SDS011;18549;42.286;22.688;2023-06-22T11:43:21;11.25;;;7.45;;
32038;SDS011;18549;42.286;22.688;2023-06-22T11:45:48;8.30;;;7.47;;
32038;SDS011;18549;42.286;22.688;2023-06-22T11:48:21;11.25;;;7.32;;
32038;SDS011;18549;42.286;22.688;2023-06-22T11:50:47;9.15;;;7.20;;
32038;SDS011;18549;42.286;22.688;2023-06-22T11:53:23;10.98;;;7.47;;
32038;SDS011;18549;42.286;22.688;2023-06-22T11:55:51;7.43;;;6.75;;
32038;SDS011;18549;42.286;22.688;2023-06-22T11:58:20;9.52;;;7.30;;
32038;SDS011;18549;42.286;22.688;2023-06-22T12:00:49;7.35;;;6.65;;
32038;SDS011;18549;42.286;22.688;2023-06-22T12:03:17;8.63;;;7.35;;
32038;SDS011;18549;42.286;22.688;2023-06-22T12:05:44;12.10;;;7.80;;
32038;SDS011;18549;42.286;22.688;2023-06-22T12:08:12;8.18;;;6.87;;
32038;SDS011;18549;42.286;22.688;2023-06-22T12:10:43;8.80;;;7.43;;
32038;SDS011;18549;42.286;22.688;2023-06-22T12:13:10;10.18;;;8.15;;
32038;SDS011;18549;42.286;22.688;2023-06-22T12:15:39;12.00;;;7.45;;
32038;SDS011;18549;42.286;22.688;2023-06-22T12:18:08;7.47;;;6.78;;
32038;SDS011;18549;42.286;22.688;2023-06-22T12:20:39;11.55;;;7.35;;
32038;SDS011;18549;42.286;22.688;2023-06-22T12:23:07;8.50;;;6.55;;
32038;SDS011;18549;42.286;22.688;2023-06-22T12:25:38;8.30;;;7.20;;
32038;SDS011;18549;42.286;22.688;2023-06-22T12:28:07;8.85;;;7.20;;
32038;SDS011;18549;42.286;22.688;2023-06-22T12:30:35;10.88;;;7.25;;
32038;SDS011;18549;42.286;22.688;2023-06-22T12:33:03;8.50;;;7.60;;
32038;SDS011;18549;42.286;22.688;2023-06-22T12:35:30;9.73;;;7.00;;
32038;SDS011;18549;42.286;22.688;2023-06-22T12:38:00;8.23;;;7.45;;
32038;SDS011;18549;42.286;22.688;2023-06-22T12:40:28;8.05;;;6.85;;
32038;SDS011;18549;42.286;22.688;2023-06-22T12:42:58;7.80;;;7.00;;
32038;SDS011;18549;42.286;22.688;2023-06-22T12:45:30;8.52;;;6.55;;
32038;SDS011;18549;42.286;22.688;2023-06-22T12:48:04;7.47;;;6.70;;
32038;SDS011;18549;42.286;22.688;2023-06-22T12:50:43;6.95;;;6.25;;
32038;SDS011;18549;42.286;22.688;2023-06-22T12:53:10;7.70;;;6.55;;
32038;SDS011;18549;42.286;22.688;2023-06-22T12:55:37;8.55;;;6.72;;
32038;SDS011;18549;42.286;22.688;2023-06-22T12:58:04;7.32;;;6.57;;
32038;SDS011;18549;42.286;22.688;2023-06-22T13:00:36;8.83;;;6.90;;
32038;SDS011;18549;42.286;22.688;2023-06-22T13:03:07;15.65;;;6.75;;
32038;SDS011;18549;42.286;22.688;2023-06-22T13:05:47;9.48;;;6.50;;
32038;SDS011;18549;42.286;22.688;2023-06-22T13:08:14;10.73;;;6.45;;
32038;SDS011;18549;42.286;22.688;2023-06-22T13:10:42;7.57;;;6.62;;
32038;SDS011;18549;42.286;22.688;2023-06-22T13:13:10;7.45;;;6.75;;
32038;SDS011;18549;42.286;22.688;2023-06-22T13:15:38;8.02;;;7.15;;
32038;SDS011;18549;42.286;22.688;2023-06-22T13:18:07;8.10;;;6.82;;
32038;SDS011;18549;42.286;22.688;2023-06-22T13:20:34;8.32;;;6.55;;
32038;SDS011;18549;42.286;22.688;2023-06-22T13:23:04;7.32;;;6.50;;
32038;SDS011;18549;42.286;22.688;2023-06-22T13:25:32;8.20;;;6.57;;
32038;SDS011;18549;42.286;22.688;2023-06-22T13:28:03;8.07;;;6.53;;
32038;SDS011;18549;42.286;22.688;2023-06-22T13:30:30;9.38;;;6.55;;
32038;SDS011;18549;42.286;22.688;2023-06-22T13:33:02;9.50;;;7.45;;
32038;SDS011;18549;42.286;22.688;2023-06-22T13:35:30;10.35;;;7.40;;
32038;SDS011;18549;42.286;22.688;2023-06-22T13:37:58;7.97;;;6.32;;
32038;SDS011;18549;42.286;22.688;2023-06-22T13:40:26;9.63;;;7.28;;
32038;SDS011;18549;42.286;22.688;2023-06-22T13:42:53;17.52;;;7.97;;
32038;SDS011;18549;42.286;22.688;2023-06-22T13:45:20;8.15;;;7.20;;
32038;SDS011;18549;42.286;22.688;2023-06-22T13:47:47;14.52;;;7.87;;
32038;SDS011;18549;42.286;22.688;2023-06-22T13:50:17;12.98;;;8.05;;
32038;SDS011;18549;42.286;22.688;2023-06-22T13:52:45;11.27;;;8.18;;
32038;SDS011;18549;42.286;22.688;2023-06-22T13:55:12;11.40;;;7.40;;
32038;SDS011;18549;42.286;22.688;2023-06-22T13:57:41;8.60;;;7.47;;
32038;SDS011;18549;42.286;22.688;2023-06-22T14:00:12;8.70;;;6.55;;
32038;SDS011;18549;42.286;22.688;2023-06-22T14:02:41;9.77;;;7.20;;
32038;SDS011;18549;42.286;22.688;2023-06-22T14:05:08;18.08;;;7.70;;
32038;SDS011;18549;42.286;22.688;2023-06-22T14:07:38;11.45;;;7.80;;
32038;SDS011;18549;42.286;22.688;2023-06-22T14:10:06;8.88;;;7.93;;
32038;SDS011;18549;42.286;22.688;2023-06-22T14:12:34;11.18;;;8.13;;
32038;SDS011;18549;42.286;22.688;2023-06-22T14:15:01;8.90;;;8.00;;
32038;SDS011;18549;42.286;22.688;2023-06-22T14:17:28;11.23;;;8.40;;
32038;SDS011;18549;42.286;22.688;2023-06-22T14:20:04;17.12;;;9.13;;
32038;SDS011;18549;42.286;22.688;2023-06-22T14:22:33;10.27;;;9.00;;
32038;SDS011;18549;42.286;22.688;2023-06-22T14:25:10;18.75;;;9.40;;
32038;SDS011;18549;42.286;22.688;2023-06-22T14:27:37;14.07;;;8.80;;
32038;SDS011;18549;42.286;22.688;2023-06-22T14:30:04;11.82;;;7.70;;
32038;SDS011;18549;42.286;22.688;2023-06-22T14:32:34;12.98;;;8.13;;